createdAt,value
2018-04-13T00:00:56.926Z,3.20
2018-04-13T00:01:56.931Z,2.20
2018-04-13T00:02:56.926Z,2.80
2018-04-13T00:03:57.591Z,3.30
2018-04-13T00:04:56.935Z,2.90
2018-04-13T00:05:57.555Z,1.90
2018-04-13T00:06:56.935Z,2.30
2018-04-13T00:09:28.603Z,2.40
2018-04-13T00:10:28.557Z,2.80
2018-04-13T00:11:28.563Z,3.90
2018-04-13T00:12:28.561Z,2.70
2018-04-13T00:17:02.388Z,4.10
2018-04-13T00:17:31.783Z,3.80
2018-04-13T00:21:56.090Z,3.90
2018-04-13T00:22:34.985Z,3.20
2018-04-13T00:26:59.759Z,2.70
2018-04-13T00:27:38.194Z,3.20
2018-04-13T00:28:38.815Z,6.00
2018-04-13T00:29:38.193Z,2.40
2018-04-13T00:30:38.205Z,2.40
2018-04-13T00:31:38.207Z,3.20
2018-04-13T00:32:38.198Z,3.60
2018-04-13T00:33:41.308Z,5.00
2018-04-13T00:34:38.204Z,4.10
2018-04-13T00:35:38.214Z,3.30
2018-04-13T00:36:38.207Z,4.20
2018-04-13T00:37:38.207Z,5.10
2018-04-13T01:18:25.739Z,5.10
2018-04-13T01:19:20.034Z,5.50
2018-04-13T01:20:20.032Z,5.30
2018-04-13T01:21:20.036Z,5.20
2018-04-13T01:22:25.241Z,5.70
2018-04-13T01:23:20.035Z,5.90
2018-04-13T01:24:20.036Z,5.00
2018-04-13T01:25:20.035Z,6.10
2018-04-13T01:26:20.040Z,6.70
2018-04-13T01:28:54.788Z,6.80
2018-04-13T01:29:51.640Z,7.50
2018-04-13T01:30:51.645Z,7.70
2018-04-13T01:31:51.646Z,6.20
2018-04-13T01:40:29.711Z,7.00
2018-04-13T01:41:29.707Z,5.70
2018-04-13T01:42:31.323Z,5.30
2018-04-13T01:43:29.702Z,5.00
2018-04-13T01:44:29.702Z,5.40
2018-04-13T01:45:29.707Z,8.20
2018-04-13T01:46:29.710Z,6.40
2018-04-13T01:55:28.748Z,7.90
2018-04-13T01:56:07.696Z,6.60
2018-04-13T02:09:22.219Z,6.30
2018-04-13T02:10:20.593Z,5.00
2018-04-13T02:11:20.589Z,5.20
2018-04-13T02:19:59.262Z,6.70
2018-04-13T02:20:58.563Z,6.40
2018-04-13T05:40:46.435Z,3.90
2018-04-13T05:41:30.154Z,6.90
2018-04-13T05:42:30.150Z,8.80
2018-04-13T05:43:30.159Z,10.90
2018-04-13T05:46:31.103Z,15.20
2018-04-13T05:47:01.765Z,21.60
2018-04-13T05:48:01.751Z,89.40
2018-04-13T05:49:01.756Z,102.30
2018-04-13T05:50:04.934Z,55.50
2018-04-13T05:51:01.763Z,23.40
2018-04-13T05:52:01.760Z,18.10
2018-04-13T05:53:01.757Z,18.30
2018-04-13T05:54:01.764Z,21.40
2018-04-13T06:16:29.090Z,6.90
2018-04-13T06:17:26.031Z,8.40
2018-04-13T06:18:26.017Z,5.60
2018-04-13T06:19:26.027Z,5.30
2018-04-13T06:20:26.029Z,7.60
2018-04-13T06:21:26.022Z,7.10
2018-04-13T07:51:06.415Z,6.40
2018-04-13T07:52:05.813Z,5.80
2018-04-13T07:53:05.815Z,6.50
2018-04-13T07:59:05.279Z,7.40
2018-04-13T07:59:40.734Z,8.30
2018-04-13T08:00:40.683Z,6.10
2018-04-13T08:01:40.741Z,6.40
2018-04-13T08:02:40.688Z,4.80
2018-04-13T08:05:17.963Z,10.00
2018-04-13T08:06:12.257Z,7.30
2018-04-13T08:07:12.271Z,9.10
2018-04-13T08:08:12.271Z,7.30
2018-04-13T08:15:39.781Z,7.40
2018-04-13T08:16:18.796Z,6.40
2018-04-13T08:17:18.785Z,6.80
2018-04-13T08:18:18.792Z,7.10
2018-04-13T08:19:23.904Z,6.30
2018-04-13T08:20:18.805Z,7.50
2018-04-13T08:21:18.798Z,7.60
2018-04-13T08:22:18.805Z,7.80
2018-04-13T08:23:18.856Z,8.20
2018-04-13T08:39:57.797Z,6.20
2018-04-13T08:40:35.644Z,5.80
2018-04-13T08:41:35.655Z,7.30
2018-04-13T08:44:12.435Z,5.90
2018-04-13T08:45:07.223Z,5.70
2018-04-13T08:46:07.237Z,8.20
2018-04-13T08:47:07.235Z,8.20
2018-04-13T08:48:08.927Z,7.40
2018-04-13T08:49:07.299Z,7.10
2018-04-13T08:50:07.229Z,10.00
2018-04-13T08:51:07.232Z,9.80
2018-04-13T08:52:07.254Z,9.30
2018-04-13T08:53:28.426Z,10.70
2018-04-13T08:54:07.324Z,7.30
2018-04-13T08:55:07.251Z,8.50
2018-04-13T08:56:07.265Z,9.00
2018-04-13T08:57:07.252Z,10.60
2018-04-13T08:58:07.900Z,7.40
2018-04-13T08:59:07.255Z,11.60
2018-04-13T09:00:07.274Z,7.70
2018-04-13T09:01:07.268Z,9.20
2018-04-13T09:02:21.429Z,6.30
2018-04-13T09:03:07.289Z,8.00
2018-04-13T09:04:07.349Z,9.20
2018-04-13T09:05:07.274Z,6.40
2018-04-13T09:06:07.270Z,7.30
2018-04-13T09:07:07.907Z,10.60
2018-04-13T09:08:07.283Z,9.80
2018-04-13T09:09:07.299Z,6.90
2018-04-13T09:10:07.286Z,11.30
2018-04-13T09:11:07.308Z,8.70
2018-04-13T09:12:07.307Z,7.70
2018-04-13T09:13:07.342Z,7.60
2018-04-13T09:14:07.317Z,10.10
2018-04-13T09:15:07.300Z,9.50
2018-04-13T09:16:07.295Z,10.20
2018-04-13T09:17:31.424Z,9.00
2018-04-13T09:18:07.888Z,5.30
2018-04-13T09:19:07.327Z,9.10
2018-04-13T09:20:07.333Z,9.40
2018-04-13T09:21:07.340Z,9.30
2018-04-13T09:22:07.385Z,9.40
2018-04-13T09:23:07.320Z,9.30
2018-04-13T09:24:07.338Z,8.70
2018-04-13T09:25:07.323Z,8.40
2018-04-13T09:26:07.320Z,7.20
2018-04-13T09:27:07.343Z,9.80
2018-04-13T09:28:26.517Z,8.30
2018-04-13T09:29:07.516Z,8.10
2018-04-13T09:30:07.450Z,10.60
2018-04-13T09:31:07.710Z,10.00
2018-04-13T09:32:07.354Z,9.80
2018-04-13T09:33:07.408Z,10.70
2018-04-13T09:34:07.346Z,10.10
2018-04-13T09:35:07.353Z,10.50
2018-04-13T09:36:07.352Z,10.50
2018-04-13T09:37:07.369Z,13.30
2018-04-13T09:38:28.446Z,8.50
2018-04-13T09:39:08.666Z,10.30
2018-04-13T09:40:10.209Z,9.00
2018-04-13T09:41:07.367Z,8.90
2018-04-13T09:42:07.377Z,11.40
2018-04-13T09:43:07.778Z,9.20
2018-04-13T09:44:09.957Z,10.70
2018-04-13T09:45:07.378Z,12.90
2018-04-13T09:46:07.395Z,13.10
2018-04-13T09:47:07.390Z,14.30
2018-04-13T09:48:07.389Z,12.00
2018-04-13T09:49:07.432Z,11.40
2018-04-13T09:50:07.633Z,9.70
2018-04-13T09:51:07.398Z,12.60
2018-04-13T09:52:07.792Z,10.40
2018-04-13T09:53:07.422Z,11.70
2018-04-13T09:55:44.183Z,11.10
2018-04-13T09:56:39.112Z,13.00
2018-04-13T09:57:39.600Z,12.80
2018-04-13T09:58:39.171Z,13.10
2018-04-13T09:59:39.002Z,10.90
2018-04-13T10:00:39.005Z,10.00
2018-04-13T10:01:39.012Z,12.50
2018-04-13T10:02:39.019Z,12.50
2018-04-13T10:03:39.026Z,14.60
2018-04-13T10:06:21.295Z,11.10
2018-04-13T10:07:10.635Z,9.30
2018-04-13T10:08:10.642Z,11.40
2018-04-13T10:09:15.780Z,11.50
2018-04-13T10:10:12.079Z,11.90
2018-04-13T10:11:10.652Z,9.50
2018-04-13T10:12:10.649Z,11.20
2018-04-13T10:13:10.660Z,10.50
2018-04-13T10:17:15.473Z,11.20
2018-04-13T10:19:45.573Z,11.80
2018-04-13T10:20:45.585Z,9.70
2018-04-13T10:21:45.610Z,9.60
2018-04-13T10:22:45.578Z,10.00
2018-04-13T10:23:46.162Z,7.90
2018-04-13T10:24:46.546Z,11.20
2018-04-13T10:25:46.591Z,11.50
2018-04-13T10:26:45.590Z,11.00
2018-04-13T10:27:45.591Z,11.40
2018-04-13T10:29:06.655Z,8.80
2018-04-13T10:29:45.597Z,9.80
2018-04-13T10:30:45.605Z,12.80
2018-04-13T10:31:45.607Z,10.10
2018-04-13T10:32:45.615Z,8.10
2018-04-13T10:34:06.730Z,11.10
2018-04-13T10:34:45.677Z,11.00
2018-04-13T10:35:46.959Z,14.50
2018-04-13T10:36:45.630Z,14.60
2018-04-13T10:37:45.634Z,9.80
2018-04-13T10:40:20.391Z,11.10
2018-04-13T10:41:17.255Z,10.50
2018-04-13T10:42:17.252Z,7.90
2018-04-13T10:43:17.446Z,9.50
2018-04-13T10:44:17.253Z,11.20
2018-04-13T10:45:17.256Z,12.60
2018-04-13T10:46:17.258Z,11.00
2018-04-13T10:47:17.273Z,9.30
2018-04-13T10:48:22.396Z,10.30
2018-04-13T10:49:17.281Z,10.20
2018-04-13T10:50:17.292Z,9.40
2018-04-13T10:51:17.284Z,11.20
2018-04-13T10:52:17.287Z,10.30
2018-04-13T10:53:56.461Z,11.40
2018-04-13T10:54:17.288Z,8.50
2018-04-13T10:55:17.290Z,10.70
2018-04-13T10:56:17.302Z,8.00
2018-04-13T10:57:17.297Z,12.10
2018-04-13T11:01:23.712Z,9.50
2018-04-13T11:02:20.565Z,7.80
2018-04-13T11:03:44.785Z,10.70
2018-04-13T11:04:20.569Z,10.70
2018-04-13T11:05:20.585Z,10.80
2018-04-13T11:06:20.577Z,11.00
2018-04-13T11:07:20.594Z,10.10
2018-04-13T11:08:49.556Z,7.70
2018-04-13T11:09:20.612Z,9.20
2018-04-13T11:10:20.654Z,8.60
2018-04-13T11:11:20.597Z,8.10
2018-04-13T11:12:20.622Z,8.90
2018-04-13T11:13:23.907Z,9.00
2018-04-13T11:14:20.611Z,10.40
2018-04-13T11:15:20.612Z,8.10
2018-04-13T11:16:20.614Z,9.20
2018-04-13T11:17:20.623Z,10.20
2018-04-13T11:18:31.182Z,6.40
2018-04-13T11:19:20.695Z,7.00
2018-04-13T11:20:20.958Z,8.50
2018-04-13T11:21:20.694Z,8.60
2018-04-13T11:22:20.671Z,7.60
2018-04-13T11:23:20.649Z,10.20
2018-04-13T11:24:41.711Z,5.70
2018-04-13T11:25:20.667Z,6.60
2018-04-13T11:26:20.671Z,3.40
2018-04-13T11:27:20.670Z,5.20
2018-04-13T11:28:20.674Z,5.90
2018-04-13T11:29:43.681Z,5.60
2018-04-13T11:30:20.686Z,6.00
2018-04-13T11:31:20.702Z,4.40
2018-04-13T11:32:20.695Z,5.00
2018-04-13T11:33:20.700Z,2.80
2018-04-13T11:37:29.599Z,3.90
2018-04-13T11:38:24.000Z,2.80
2018-04-13T11:39:24.039Z,3.70
2018-04-13T11:40:24.892Z,4.30
2018-04-13T11:41:24.012Z,2.50
2018-04-13T11:42:24.012Z,3.40
2018-04-13T11:43:24.042Z,3.00
2018-04-13T12:14:56.954Z,3.00
2018-04-13T12:15:56.715Z,3.10
2018-04-13T12:16:56.726Z,2.10
2018-04-13T12:17:56.731Z,2.70
2018-04-13T12:18:56.741Z,4.00
2018-04-13T12:32:09.862Z,1.30
2018-04-13T12:33:09.855Z,2.10
2018-04-13T12:34:09.861Z,0.60
2018-04-13T15:20:31.260Z,1.70
2018-04-13T15:21:08.159Z,2.00
